Terminal Aerodrome Forecast
Issued by NWS

Home | Current Version | Previous Version | Text Only | Print | Product List | Glossary On
Versions: 1 2 3 4 5 6 7 8 9 10 11 12 13 14 15 16 17 18 19 20 21 22 23 24 25 26 27 28 29 30 31 32 33 34 35 36 37 38 39 40 41
503
FTUS45 KBOU 012043 AAA
TAFAPA
TAF AMD
KAPA 012043Z 0121/0218 06006KT P6SM SCT090 BKN200
     FM020200 12007KT P6SM BKN120 BKN200
     FM020500 17007KT P6SM BKN120 BKN200
     FM021000 15006KT P6SM BKN080 BKN120
     FM021500 03004KT P6SM BKN080 BKN120=

USA.gov is the U.S. government's official web portal to all federal, state and local government web resources and services.